createdAt,value
2018-09-30T00:01:46.993Z,4.60
2018-09-30T00:06:44.401Z,5.37
2018-09-30T00:11:41.917Z,5.67
2018-09-30T00:16:39.343Z,3.90
2018-09-30T00:21:36.774Z,3.40
2018-09-30T00:26:39.930Z,3.50
2018-09-30T00:31:37.411Z,3.67
2018-09-30T00:36:34.872Z,3.80
2018-09-30T00:41:32.292Z,3.97
2018-09-30T00:46:29.836Z,3.60
2018-09-30T00:51:27.351Z,3.30
2018-09-30T00:56:24.851Z,3.60
2018-09-30T01:01:22.284Z,2.23
2018-09-30T01:06:19.768Z,2.70
2018-09-30T01:11:17.288Z,3.10
2018-09-30T01:16:14.768Z,2.63
2018-09-30T01:21:12.199Z,2.83
2018-09-30T01:26:09.748Z,2.27
2018-09-30T01:31:07.331Z,2.63
2018-09-30T01:36:04.732Z,2.53
2018-09-30T01:41:02.135Z,2.23
2018-09-30T01:45:59.572Z,2.80
2018-09-30T01:50:56.978Z,2.50
2018-09-30T01:55:54.479Z,3.00
2018-09-30T02:00:51.971Z,2.03
2018-09-30T02:05:49.443Z,2.47
2018-09-30T02:10:46.908Z,2.37
2018-09-30T02:15:44.360Z,2.73
2018-09-30T02:20:41.779Z,1.87
2018-09-30T02:25:39.201Z,2.27
2018-09-30T02:30:36.720Z,2.30
2018-09-30T02:35:34.144Z,2.20
2018-09-30T02:40:31.543Z,2.00
2018-09-30T02:45:28.959Z,2.30
2018-09-30T02:50:26.368Z,1.90
2018-09-30T02:55:23.844Z,2.03
2018-09-30T03:00:21.283Z,2.40
2018-09-30T03:05:18.708Z,2.60
2018-09-30T03:10:16.253Z,1.80
2018-09-30T03:15:13.668Z,1.60
2018-09-30T03:20:11.123Z,2.50
2018-09-30T03:25:08.540Z,4.50
2018-09-30T03:30:05.992Z,2.10
2018-09-30T03:35:03.471Z,1.90
2018-09-30T03:40:01.059Z,2.00
2018-09-30T03:44:58.491Z,3.43
2018-09-30T03:49:55.905Z,2.33
2018-09-30T03:54:54.279Z,1.70
2018-09-30T03:59:51.692Z,2.33
2018-09-30T04:04:49.154Z,2.70
2018-09-30T04:09:46.595Z,2.07
2018-09-30T04:14:44.027Z,2.37
2018-09-30T04:19:41.455Z,2.33
2018-09-30T04:24:44.059Z,2.50
2018-09-30T04:29:41.585Z,2.43
2018-09-30T04:34:39.101Z,2.10
2018-09-30T04:39:36.512Z,2.13
2018-09-30T04:44:33.920Z,2.63
2018-09-30T04:49:31.371Z,1.80
2018-09-30T04:54:32.668Z,2.40
2018-09-30T04:59:30.200Z,2.20
2018-09-30T05:04:27.646Z,2.10
2018-09-30T05:09:25.076Z,2.07
2018-09-30T05:14:22.600Z,2.30
2018-09-30T05:19:20.079Z,2.40
2018-09-30T05:24:18.728Z,2.10
2018-09-30T05:29:16.168Z,1.90
2018-09-30T05:34:13.655Z,1.70
2018-09-30T05:39:11.535Z,2.37
2018-09-30T05:44:09.520Z,4.60
2018-09-30T05:49:07.139Z,2.50
2018-09-30T05:54:14.081Z,2.00
2018-09-30T05:59:11.648Z,1.97
2018-09-30T06:04:09.741Z,1.70
2018-09-30T06:09:09.220Z,1.83
2018-09-30T06:14:06.759Z,2.70
2018-09-30T06:19:04.101Z,1.90
2018-09-30T06:24:13.975Z,2.00
2018-09-30T06:29:11.620Z,2.83
2018-09-30T06:34:09.067Z,2.10
2018-09-30T06:39:08.943Z,2.70
2018-09-30T06:44:06.704Z,2.83
2018-09-30T06:49:04.263Z,2.77
2018-09-30T06:54:06.619Z,4.70
2018-09-30T06:59:06.494Z,4.00
2018-09-30T07:04:04.046Z,3.57
2018-09-30T07:09:01.568Z,3.87
2018-09-30T07:14:01.053Z,3.37
2018-09-30T07:19:00.014Z,2.50
2018-09-30T07:24:09.143Z,2.37
2018-09-30T07:29:06.939Z,2.73
2018-09-30T07:34:04.437Z,1.90
2018-09-30T07:39:01.969Z,2.63
2018-09-30T07:43:59.531Z,1.93
2018-09-30T07:48:57.063Z,2.60
2018-09-30T07:54:07.408Z,2.00
2018-09-30T07:59:04.890Z,1.80
2018-09-30T08:04:02.364Z,2.00
2018-09-30T08:09:00.114Z,1.93
2018-09-30T08:13:57.638Z,2.30
2018-09-30T08:18:55.179Z,2.80
2018-09-30T08:24:05.144Z,2.10
2018-09-30T08:29:02.894Z,2.37
2018-09-30T08:34:00.370Z,2.47
2018-09-30T08:38:57.830Z,2.33
2018-09-30T08:43:59.365Z,2.03
2018-09-30T08:48:57.027Z,1.87
2018-09-30T08:54:02.583Z,2.50
2018-09-30T08:59:00.106Z,2.20
2018-09-30T09:03:57.638Z,2.17
2018-09-30T09:08:55.143Z,1.93
2018-09-30T09:13:55.228Z,2.47
2018-09-30T09:18:54.557Z,2.30
2018-09-30T09:23:54.328Z,2.07
2018-09-30T09:28:54.009Z,1.60
2018-09-30T09:33:52.141Z,1.87
2018-09-30T09:38:52.642Z,1.83
2018-09-30T09:43:50.373Z,1.53
2018-09-30T09:48:47.898Z,1.83
2018-09-30T09:53:47.741Z,2.07
2018-09-30T09:58:45.555Z,2.07
2018-09-30T10:03:42.983Z,4.20
2018-09-30T10:08:40.420Z,2.73
2018-09-30T10:13:37.896Z,2.50
2018-09-30T10:18:36.436Z,2.37
2018-09-30T10:23:34.589Z,2.00
2018-09-30T10:28:32.497Z,2.30
2018-09-30T10:33:30.959Z,2.40
2018-09-30T10:38:29.307Z,1.90
2018-09-30T10:43:31.326Z,2.97
2018-09-30T10:53:24.988Z,2.43
2018-09-30T10:58:24.277Z,2.37
2018-09-30T11:03:21.934Z,2.67
2018-09-30T11:08:19.603Z,2.63
2018-09-30T11:13:24.465Z,2.63
2018-09-30T11:18:25.744Z,2.40
2018-09-30T11:23:24.787Z,2.20
2018-09-30T11:28:24.109Z,1.60
2018-09-30T11:33:25.876Z,2.33
2018-09-30T11:38:24.475Z,2.90
2018-09-30T11:43:25.390Z,2.33
2018-09-30T11:48:25.333Z,2.20
2018-09-30T11:53:25.866Z,3.50
2018-09-30T11:58:28.826Z,2.33
2018-09-30T12:03:27.072Z,3.40
2018-09-30T12:08:29.272Z,2.70
2018-09-30T12:13:27.890Z,2.60
2018-09-30T12:18:28.598Z,2.67
2018-09-30T12:23:28.114Z,2.90
2018-09-30T12:28:28.496Z,3.33
2018-09-30T12:33:26.694Z,2.77
2018-09-30T12:38:26.384Z,3.87
2018-09-30T12:43:24.490Z,3.73
2018-09-30T12:48:26.303Z,4.40
2018-09-30T12:58:32.269Z,3.80
2018-09-30T13:03:31.872Z,4.77
2018-09-30T13:08:35.161Z,4.80
2018-09-30T13:13:35.060Z,4.87
2018-09-30T13:18:35.635Z,5.10
2018-09-30T13:23:35.856Z,4.80
2018-09-30T13:28:33.560Z,3.83
2018-09-30T13:33:31.295Z,5.40
2018-09-30T13:38:28.840Z,4.13
2018-09-30T13:43:26.488Z,3.50
2018-09-30T13:48:26.693Z,4.00
2018-09-30T13:53:26.956Z,3.77
2018-09-30T13:58:28.403Z,4.97
2018-09-30T14:03:27.070Z,4.10
2018-09-30T14:08:30.865Z,4.23
2018-09-30T14:13:33.335Z,3.70
2018-09-30T14:18:32.462Z,4.20
2018-09-30T14:23:30.979Z,4.43
2018-09-30T14:28:32.670Z,3.63
2018-09-30T14:33:31.760Z,3.60
2018-09-30T14:38:29.692Z,3.53
2018-09-30T14:43:30.846Z,3.37
2018-09-30T14:48:31.325Z,4.47
2018-09-30T14:53:30.920Z,4.17
2018-09-30T14:58:30.776Z,3.97
2018-09-30T15:03:30.729Z,3.13
2018-09-30T15:08:29.038Z,4.13
2018-09-30T15:13:28.253Z,3.83
2018-09-30T15:18:26.699Z,5.03
2018-09-30T15:23:25.005Z,3.80
2018-09-30T15:28:24.207Z,4.03
2018-09-30T15:33:30.773Z,4.30
2018-09-30T15:38:32.739Z,4.80
2018-09-30T15:43:39.320Z,4.13
2018-09-30T15:48:42.758Z,3.90
2018-09-30T15:53:44.837Z,4.30
2018-09-30T15:58:48.146Z,4.70
2018-09-30T16:03:53.760Z,3.73
2018-09-30T16:08:52.472Z,3.60
2018-09-30T16:13:53.451Z,3.97
2018-09-30T16:19:04.361Z,4.00
2018-09-30T16:24:04.984Z,3.03
2018-09-30T16:29:03.794Z,3.80
2018-09-30T16:34:01.412Z,2.90
2018-09-30T16:38:59.037Z,3.30
2018-09-30T16:43:56.616Z,2.73
2018-09-30T16:48:54.118Z,4.00
2018-09-30T16:53:53.617Z,6.43
2018-09-30T16:58:52.785Z,4.90
2018-09-30T17:03:52.736Z,3.50
2018-09-30T17:08:50.733Z,4.03
2018-09-30T17:13:48.274Z,5.80
2018-09-30T17:18:45.882Z,3.97
2018-09-30T17:23:45.020Z,3.40
2018-09-30T17:28:42.530Z,4.50
2018-09-30T17:33:40.134Z,3.80
2018-09-30T17:38:37.639Z,3.90
2018-09-30T17:43:35.154Z,4.30
2018-09-30T17:48:32.718Z,4.37
2018-09-30T17:53:30.418Z,4.20
2018-09-30T17:58:29.711Z,4.53
2018-09-30T18:03:27.300Z,4.70
2018-09-30T18:08:27.028Z,4.87
2018-09-30T18:13:24.603Z,4.03
2018-09-30T18:18:22.090Z,4.77
2018-09-30T18:23:19.561Z,4.50
2018-09-30T18:28:17.093Z,3.90
2018-09-30T18:33:14.560Z,4.00
2018-09-30T18:38:12.242Z,4.07
2018-09-30T18:43:10.185Z,3.80
2018-09-30T18:48:08.270Z,4.37
2018-09-30T18:53:06.179Z,4.53
2018-09-30T18:58:03.682Z,4.30
2018-09-30T19:03:01.411Z,6.90
2018-09-30T19:07:59.494Z,13.80
2018-09-30T19:12:56.987Z,6.70
2018-09-30T19:17:54.525Z,5.83
2018-09-30T19:22:52.023Z,5.37
2018-09-30T19:27:49.557Z,5.37
2018-09-30T19:32:47.120Z,5.60
2018-09-30T19:37:51.310Z,5.20
2018-09-30T19:42:48.788Z,5.53
2018-09-30T19:47:46.319Z,5.53
2018-09-30T19:52:43.809Z,5.53
2018-09-30T19:57:41.418Z,4.57
2018-09-30T20:02:38.897Z,5.00
2018-09-30T20:07:36.370Z,4.40
2018-09-30T20:12:33.899Z,4.00
2018-09-30T20:17:31.406Z,4.93
2018-09-30T20:22:28.906Z,4.23
2018-09-30T20:27:26.441Z,5.00
2018-09-30T20:32:24.171Z,4.47
2018-09-30T20:37:21.650Z,6.80
2018-09-30T20:42:19.129Z,6.40
2018-09-30T20:47:16.603Z,5.80
2018-09-30T20:52:14.137Z,6.13
2018-09-30T20:57:11.621Z,4.50
2018-09-30T21:02:09.118Z,5.60
2018-09-30T21:07:06.647Z,4.87
2018-09-30T21:12:04.142Z,5.70
2018-09-30T21:17:01.628Z,4.70
2018-09-30T21:21:59.142Z,6.67
2018-09-30T21:26:56.651Z,6.07
2018-09-30T21:31:54.113Z,6.03
2018-09-30T21:36:51.606Z,6.27
2018-09-30T21:41:52.367Z,6.43
2018-09-30T21:46:49.940Z,6.83
2018-09-30T21:51:47.446Z,6.57
2018-09-30T21:56:44.981Z,6.50
2018-09-30T22:01:43.572Z,6.37
2018-09-30T22:06:41.073Z,5.87
2018-09-30T22:11:38.562Z,5.57
2018-09-30T22:16:36.057Z,5.80
2018-09-30T22:21:33.580Z,6.03
2018-09-30T22:26:31.045Z,6.83
2018-09-30T22:31:28.517Z,7.37
2018-09-30T22:36:26.013Z,7.70
2018-09-30T22:41:23.486Z,6.80
2018-09-30T22:46:20.975Z,7.03
2018-09-30T22:51:18.457Z,6.80
2018-09-30T22:56:15.954Z,6.90
2018-09-30T23:01:13.442Z,7.13
2018-09-30T23:06:10.944Z,8.43
2018-09-30T23:11:08.430Z,8.50
2018-09-30T23:16:06.051Z,6.40
2018-09-30T23:21:03.545Z,6.73
2018-09-30T23:26:01.059Z,7.13
2018-09-30T23:30:58.542Z,6.20
2018-09-30T23:35:56.065Z,6.67
2018-09-30T23:40:53.595Z,7.03
2018-09-30T23:45:51.081Z,6.73
2018-09-30T23:50:48.563Z,7.30
2018-09-30T23:55:46.168Z,7.87
